Time;durP1;ratioP1;P1;durP2;ratioP2;P2;SDS_P1;SDS_P2;PMS_P1;PMS_P2;Temp;Humidity;BMP_temperature;BMP_pressure;BME280_temperature;BME280_humidity;BME280_pressure;Samples;Min_cycle;Max_cycle;Signal;HPM_P1;HPM_P2
2024/02/23 00:03:52;;;;;;;0.08;0.08;;;;;;;;;;10575388;27;20119;-74
2024/02/23 00:08:55;;;;;;;0.15;0.00;;;;;;;;;;10565280;27;20046;-75
2024/02/23 00:13:59;;;;;;;0.20;0.20;;;;;;;;;;10569045;28;20131;-76
2024/02/23 00:19:02;;;;;;;;;;;;;;;;;;10568429;28;20589;-75
2024/02/23 00:24:05;;;;;;;0.43;0.20;;;;;;;;;;10568369;28;19941;-75
2024/02/23 00:29:10;;;;;;;0.00;0.00;;;;;;;;;;10566157;28;20067;-75
2024/02/23 00:34:13;;;;;;;0.13;0.13;;;;;;;;;;10575816;27;20039;-75
2024/02/23 00:39:16;;;;;;;0.05;0.03;;;;;;;;;;10568954;27;20104;-76
2024/02/23 00:44:20;;;;;;;0.32;0.00;;;;;;;;;;10565403;27;20566;-75
2024/02/23 00:49:23;;;;;;;;;;;;;;;;;;10574686;27;20039;-75
2024/02/23 00:54:27;;;;;;;0.10;0.10;;;;;;;;;;10577617;27;19920;-74
2024/02/23 00:59:30;;;;;;;0.25;0.00;;;;;;;;;;10562924;27;20059;-76
2024/02/23 01:04:33;;;;;;;0.15;0.10;;;;;;;;;;10563865;27;20086;-74
2024/02/23 01:09:36;;;;;;;0.00;0.00;;;;;;;;;;10562928;28;20053;-74
2024/02/23 01:14:40;;;;;;;0.10;0.10;;;;;;;;;;10564708;27;20063;-74
2024/02/23 01:19:43;;;;;;;0.63;0.05;;;;;;;;;;10566322;27;20048;-75
2024/02/23 01:24:46;;;;;;;0.87;0.20;;;;;;;;;;10567315;27;20040;-75
2024/02/23 01:29:50;;;;;;;0.65;0.10;;;;;;;;;;10564642;27;20147;-75
2024/02/23 01:34:53;;;;;;;;;;;;;;;;;;10573339;27;20485;-74
2024/02/23 01:39:56;;;;;;;0.10;0.05;;;;;;;;;;10561472;27;19965;-74
2024/02/23 01:45:01;;;;;;;0.00;0.00;;;;;;;;;;10580116;27;20111;-75
2024/02/23 01:50:05;;;;;;;0.15;0.00;;;;;;;;;;10560768;27;20044;-75
2024/02/23 01:55:08;;;;;;;0.10;0.10;;;;;;;;;;10573338;27;20066;-75
2024/02/23 02:00:15;;;;;;;0.17;0.10;;;;;;;;;;10559926;27;20067;-74
2024/02/23 02:05:19;;;;;;;0.10;0.10;;;;;;;;;;10561027;27;20040;-74
2024/02/23 02:10:22;;;;;;;0.00;0.00;;;;;;;;;;10565822;27;20105;-75
2024/02/23 02:15:27;;;;;;;0.00;0.00;;;;;;;;;;10568522;27;20035;-75
2024/02/23 02:20:29;;;;;;;;;;;;;;;;;;10563993;27;20043;-75
2024/02/23 02:25:32;;;;;;;0.00;0.00;;;;;;;;;;10565579;27;20300;-74
2024/02/23 02:30:37;;;;;;;0.10;0.10;;;;;;;;;;10561058;27;20047;-73
2024/02/23 02:35:40;;;;;;;0.00;0.00;;;;;;;;;;10561907;27;20044;-74
2024/02/23 02:40:43;;;;;;;0.00;0.00;;;;;;;;;;10568062;28;20050;-74
2024/02/23 02:45:47;;;;;;;0.00;0.00;;;;;;;;;;10571250;28;20035;-75
2024/02/23 02:50:50;;;;;;;0.17;0.10;;;;;;;;;;10562716;28;20046;-74
2024/02/23 02:55:56;;;;;;;0.65;0.22;;;;;;;;;;10579846;28;20063;-74
2024/02/23 03:01:00;;;;;;;0.20;0.10;;;;;;;;;;10554260;28;20036;-75
2024/02/23 03:06:03;;;;;;;0.00;0.00;;;;;;;;;;10573104;27;20558;-74
2024/02/23 03:11:06;;;;;;;0.30;0.10;;;;;;;;;;10574391;27;20044;-74
2024/02/23 03:16:17;;;;;;;0.00;0.00;;;;;;;;;;10577038;27;20100;-75
2024/02/23 03:21:20;;;;;;;0.00;0.00;;;;;;;;;;10561542;27;20032;-74
2024/02/23 03:26:23;;;;;;;0.43;0.00;;;;;;;;;;10584664;27;20054;-74
2024/02/23 03:31:27;;;;;;;0.07;0.00;;;;;;;;;;10573596;27;20043;-75
2024/02/23 03:36:30;;;;;;;;;;;;;;;;;;10572085;27;20127;-75
2024/02/23 03:41:33;;;;;;;0.00;0.00;;;;;;;;;;10567649;27;20006;-74
2024/02/23 03:46:37;;;;;;;0.30;0.20;;;;;;;;;;10570514;27;20066;-74
2024/02/23 03:51:40;;;;;;;0.10;0.10;;;;;;;;;;10571754;27;20054;-75
2024/02/23 03:56:43;;;;;;;0.20;0.10;;;;;;;;;;10563194;27;20134;-74
2024/02/23 04:01:47;;;;;;;1.30;0.28;;;;;;;;;;10570691;27;20492;-74
2024/02/23 04:06:49;;;;;;;;;;;;;;;;;;10569975;27;20048;-74
2024/02/23 04:11:52;;;;;;;0.68;0.10;;;;;;;;;;10568330;27;19962;-74
2024/02/23 04:16:57;;;;;;;0.20;0.20;;;;;;;;;;10573581;27;20058;-74
2024/02/23 04:21:59;;;;;;;;;;;;;;;;;;10571853;27;20501;-74
2024/02/23 04:27:02;;;;;;;0.15;0.13;;;;;;;;;;10560844;27;20000;-74
2024/02/23 04:32:07;;;;;;;0.10;0.10;;;;;;;;;;10570337;27;20036;-74
2024/02/23 04:37:10;;;;;;;0.95;0.15;;;;;;;;;;10560022;27;20047;-73
2024/02/23 04:42:13;;;;;;;0.52;0.10;;;;;;;;;;10566832;27;20044;-74
2024/02/23 04:47:17;;;;;;;0.10;0.10;;;;;;;;;;10553643;27;20123;-73
2024/02/23 04:52:20;;;;;;;;;;;;;;;;;;10559278;28;20408;-74
2024/02/23 04:57:23;;;;;;;0.10;0.10;;;;;;;;;;10572683;27;19934;-73
2024/02/23 05:02:33;;;;;;;0.00;0.00;;;;;;;;;;10556888;27;20035;-73
2024/02/23 05:07:36;;;;;;;0.15;0.15;;;;;;;;;;10565901;27;20047;-75
2024/02/23 05:12:39;;;;;;;0.10;0.10;;;;;;;;;;10571811;27;20103;-74
2024/02/23 05:17:43;;;;;;;0.20;0.10;;;;;;;;;;10552982;27;20046;-74
2024/02/23 05:22:47;;;;;;;0.60;0.17;;;;;;;;;;10566986;27;20092;-74
2024/02/23 05:27:49;;;;;;;0.20;0.10;;;;;;;;;;10573285;27;20122;-74
2024/02/23 05:32:53;;;;;;;0.10;0.10;;;;;;;;;;10562540;28;20071;-73
2024/02/23 05:37:56;;;;;;;0.10;0.10;;;;;;;;;;10567604;27;20039;-74
2024/02/23 05:42:59;;;;;;;0.40;0.30;;;;;;;;;;10567411;27;20039;-74
2024/02/23 05:48:03;;;;;;;0.32;0.28;;;;;;;;;;10562755;28;20369;-73
2024/02/23 05:53:05;;;;;;;;;;;;;;;;;;10577691;27;20388;-74
2024/02/23 05:58:09;;;;;;;0.22;0.22;;;;;;;;;;10569328;27;19920;-73
2024/02/23 06:03:13;;;;;;;0.45;0.25;;;;;;;;;;10564339;27;20092;-74
2024/02/23 06:08:17;;;;;;;0.40;0.25;;;;;;;;;;10539712;27;20032;-73
2024/02/23 06:13:20;;;;;;;;;;;;;;;;;;10559764;27;20123;-75
2024/02/23 06:18:27;;;;;;;1.45;0.20;;;;;;;;;;10564400;27;20032;-75
2024/02/23 06:23:30;;;;;;;1.80;0.15;;;;;;;;;;10562201;27;20603;-74
2024/02/23 06:28:33;;;;;;;0.10;0.10;;;;;;;;;;10553761;27;20040;-74
2024/02/23 06:33:37;;;;;;;0.10;0.10;;;;;;;;;;10549277;27;20047;-74
2024/02/23 06:38:39;;;;;;;;;;;;;;;;;;10567837;28;20042;-75
2024/02/23 06:43:42;;;;;;;0.10;0.10;;;;;;;;;;10569303;28;19923;-74
2024/02/23 06:48:47;;;;;;;0.08;0.08;;;;;;;;;;10570652;28;20470;-74
2024/02/23 06:53:49;;;;;;;1.00;0.30;;;;;;;;;;10555585;28;20413;-75
2024/02/23 06:58:52;;;;;;;4.50;1.52;;;;;;;;;;10560514;28;20043;-75
2024/02/23 07:03:56;;;;;;;0.77;0.35;;;;;;;;;;10542325;28;20122;-73
2024/02/23 07:08:59;;;;;;;;;;;;;;;;;;10567473;28;20123;-74
2024/02/23 07:14:01;;;;;;;1.70;0.82;;;;;;;;;;10571093;28;19979;-73
2024/02/23 07:19:05;;;;;;;1.58;0.45;;;;;;;;;;10550494;28;20043;-74
2024/02/23 07:24:08;;;;;;;0.28;0.25;;;;;;;;;;10570416;28;20054;-74
2024/02/23 07:29:11;;;;;;;2.20;0.17;;;;;;;;;;10558550;28;20329;-74
2024/02/23 07:34:16;;;;;;;1.25;0.22;;;;;;;;;;10554859;28;20040;-75
2024/02/23 07:39:19;;;;;;;0.43;0.20;;;;;;;;;;10560798;28;20600;-75
2024/02/23 07:44:22;;;;;;;0.85;0.20;;;;;;;;;;10549954;28;20047;-74
2024/02/23 07:49:28;;;;;;;1.17;0.30;;;;;;;;;;10567013;27;20040;-74
2024/02/23 07:54:31;;;;;;;0.65;0.25;;;;;;;;;;10557525;28;20120;-74
2024/02/23 07:59:33;;;;;;;0.75;0.30;;;;;;;;;;10566178;28;20502;-73
2024/02/23 08:04:38;;;;;;;0.45;0.43;;;;;;;;;;10566728;27;20093;-74
2024/02/23 08:09:41;;;;;;;1.75;0.30;;;;;;;;;;10576410;27;20044;-76
2024/02/23 08:14:45;;;;;;;0.17;0.13;;;;;;;;;;10563922;27;20100;-74
2024/02/23 08:19:49;;;;;;;0.85;0.28;;;;;;;;;;10567221;27;20085;-75
2024/02/23 08:24:52;;;;;;;2.20;0.28;;;;;;;;;;10568574;27;20048;-75
2024/02/23 08:29:54;;;;;;;0.60;0.38;;;;;;;;;;10572602;27;20108;-75
2024/02/23 08:35:00;;;;;;;0.40;0.25;;;;;;;;;;10569075;27;20048;-75
2024/02/23 08:40:03;;;;;;;3.63;0.40;;;;;;;;;;10566994;27;20400;-74
2024/02/23 08:45:07;;;;;;;0.30;0.25;;;;;;;;;;10570739;27;20114;-75
2024/02/23 08:50:11;;;;;;;0.17;0.10;;;;;;;;;;10570195;27;20104;-74
2024/02/23 08:55:14;;;;;;;;;;;;;;;;;;10571585;27;20203;-75
2024/02/23 09:00:17;;;;;;;1.75;0.45;;;;;;;;;;10577458;27;19945;-75
2024/02/23 09:05:21;;;;;;;0.40;0.10;;;;;;;;;;10549103;28;20071;-74
2024/02/23 09:10:24;;;;;;;0.75;0.40;;;;;;;;;;10569967;27;20297;-74
2024/02/23 09:15:27;;;;;;;0.45;0.15;;;;;;;;;;10576009;27;20592;-74
2024/02/23 09:20:31;;;;;;;0.50;0.32;;;;;;;;;;10569285;27;20122;-74
2024/02/23 09:25:33;;;;;;;0.43;0.13;;;;;;;;;;10574647;27;20082;-73
2024/02/23 09:30:36;;;;;;;0.25;0.25;;;;;;;;;;10567560;27;20048;-74
2024/02/23 09:35:40;;;;;;;1.35;0.40;;;;;;;;;;10553901;27;20127;-74
2024/02/23 09:40:45;;;;;;;1.05;0.20;;;;;;;;;;10563872;27;20048;-74
2024/02/23 09:45:51;;;;;;;0.45;0.20;;;;;;;;;;10560314;27;20106;-74
2024/02/23 09:50:57;;;;;;;0.93;0.10;;;;;;;;;;10570894;27;20486;-74
2024/02/23 09:56:00;;;;;;;6.82;0.55;;;;;;;;;;10561177;27;20586;-73
2024/02/23 10:01:03;;;;;;;0.90;0.57;;;;;;;;;;10574413;27;20039;-73
2024/02/23 10:06:08;;;;;;;1.23;0.53;;;;;;;;;;10564213;27;20173;-73
2024/02/23 10:11:11;;;;;;;0.95;0.55;;;;;;;;;;10575429;27;20082;-74
2024/02/23 10:16:20;;;;;;;0.00;0.00;;;;;;;;;;10575816;27;20035;-72
2024/02/23 10:21:25;;;;;;;3.75;0.30;;;;;;;;;;10565118;27;20039;-74
2024/02/23 10:26:28;;;;;;;0.75;0.30;;;;;;;;;;10568860;27;20035;-74
2024/02/23 10:31:35;;;;;;;1.13;0.30;;;;;;;;;;10565923;27;20101;-73
2024/02/23 10:36:41;;;;;;;0.40;0.25;;;;;;;;;;10554008;28;20576;-74
2024/02/23 10:41:46;;;;;;;0.93;0.30;;;;;;;;;;10574148;27;20123;-74
2024/02/23 10:46:50;;;;;;;0.40;0.40;;;;;;;;;;10561516;28;20039;-74
2024/02/23 10:51:56;;;;;;;1.27;0.43;;;;;;;;;;10562853;28;20051;-75
2024/02/23 10:56:58;;;;;;;0.10;0.10;;;;;;;;;;10558442;28;20066;-73
2024/02/23 11:02:02;;;;;;;0.45;0.40;;;;;;;;;;10563000;28;20676;-73
2024/02/23 11:07:14;;;;;;;2.30;0.60;;;;;;;;;;10563157;28;20186;-74
2024/02/23 11:12:24;;;;;;;0.75;0.25;;;;;;;;;;10563749;28;20044;-74
2024/02/23 11:17:27;;;;;;;0.85;0.50;;;;;;;;;;10552176;28;20056;-73
2024/02/23 11:22:33;;;;;;;0.15;0.10;;;;;;;;;;10567117;27;20455;-74
2024/02/23 11:27:42;;;;;;;0.28;0.20;;;;;;;;;;10547556;27;20051;-75
2024/02/23 11:32:46;;;;;;;0.80;0.50;;;;;;;;;;10569856;27;20520;-74
2024/02/23 11:37:57;;;;;;;0.50;0.47;;;;;;;;;;10584644;27;20644;-73
2024/02/23 11:43:00;;;;;;;1.00;0.15;;;;;;;;;;10573456;27;20044;-74
2024/02/23 11:48:03;;;;;;;0.38;0.30;;;;;;;;;;10579715;27;20517;-75
2024/02/23 11:53:07;;;;;;;2.40;0.50;;;;;;;;;;10577681;27;20525;-74
2024/02/23 11:58:10;;;;;;;0.20;0.20;;;;;;;;;;10568331;27;20047;-74
2024/02/23 12:03:20;;;;;;;0.00;0.00;;;;;;;;;;10572974;27;20127;-75
2024/02/23 12:08:25;;;;;;;2.72;0.55;;;;;;;;;;10555884;27;20186;-75
2024/02/23 12:13:29;;;;;;;0.60;0.60;;;;;;;;;;10571821;27;20044;-73
2024/02/23 12:18:34;;;;;;;0.30;0.30;;;;;;;;;;10578663;27;20507;-73
2024/02/23 12:23:42;;;;;;;0.20;0.15;;;;;;;;;;10570696;27;20101;-73
2024/02/23 12:28:46;;;;;;;0.43;0.20;;;;;;;;;;10569992;27;20044;-73
2024/02/23 12:33:49;;;;;;;1.13;0.50;;;;;;;;;;10549164;28;20044;-72
2024/02/23 12:38:54;;;;;;;0.32;0.10;;;;;;;;;;10567825;27;20075;-74
2024/02/23 12:43:57;;;;;;;1.08;0.28;;;;;;;;;;10572451;27;20062;-73
2024/02/23 12:49:00;;;;;;;1.45;0.43;;;;;;;;;;10570902;27;20505;-74
2024/02/23 12:54:04;;;;;;;1.98;0.20;;;;;;;;;;10565661;27;20502;-73
2024/02/23 12:59:09;;;;;;;0.50;0.30;;;;;;;;;;10559527;27;20071;-73
2024/02/23 13:04:12;;;;;;;2.65;0.43;;;;;;;;;;10565119;28;20394;-74
2024/02/23 13:09:17;;;;;;;0.17;0.13;;;;;;;;;;10568725;27;20035;-73
2024/02/23 13:14:19;;;;;;;1.45;0.25;;;;;;;;;;10555454;27;20104;-72
2024/02/23 13:19:22;;;;;;;1.05;0.43;;;;;;;;;;10572340;27;20130;-73
2024/02/23 13:24:27;;;;;;;0.80;0.50;;;;;;;;;;10564905;27;20053;-74
2024/02/23 13:29:30;;;;;;;0.30;0.30;;;;;;;;;;10565607;27;20077;-72
2024/02/23 13:34:33;;;;;;;0.20;0.10;;;;;;;;;;10572701;27;20499;-75
2024/02/23 13:39:37;;;;;;;1.35;0.30;;;;;;;;;;10563990;27;20081;-74
2024/02/23 13:44:40;;;;;;;;;;;;;;;;;;10570844;27;20093;-75
2024/02/23 13:49:42;;;;;;;1.08;0.30;;;;;;;;;;10565647;27;19919;-73
2024/02/23 13:54:46;;;;;;;0.98;0.20;;;;;;;;;;10565107;27;20269;-73
2024/02/23 13:59:49;;;;;;;0.73;0.30;;;;;;;;;;10576307;27;20528;-74
2024/02/23 14:04:52;;;;;;;0.30;0.20;;;;;;;;;;10565639;27;20074;-73
2024/02/23 14:09:56;;;;;;;0.80;0.32;;;;;;;;;;10554494;27;20055;-72
2024/02/23 14:14:59;;;;;;;0.82;0.50;;;;;;;;;;10555295;27;20051;-72
2024/02/23 14:20:02;;;;;;;0.85;0.30;;;;;;;;;;10560939;27;20521;-74
2024/02/23 14:25:09;;;;;;;0.15;0.10;;;;;;;;;;10559847;28;20047;-73
2024/02/23 14:30:12;;;;;;;1.13;0.50;;;;;;;;;;10558178;27;20150;-72
2024/02/23 14:35:15;;;;;;;0.55;0.22;;;;;;;;;;10577367;27;20043;-73
2024/02/23 14:40:19;;;;;;;0.20;0.20;;;;;;;;;;10566408;28;20492;-74
2024/02/23 14:45:23;;;;;;;0.10;0.10;;;;;;;;;;10564310;27;20475;-72
2024/02/23 14:50:25;;;;;;;0.40;0.30;;;;;;;;;;10572968;28;20134;-73
2024/02/23 14:55:30;;;;;;;0.52;0.40;;;;;;;;;;10545008;28;20404;-73
2024/02/23 15:00:33;;;;;;;;;;;;;;;;;;10572169;28;20036;-71
2024/02/23 15:05:35;;;;;;;2.88;0.80;;;;;;;;;;10572920;27;19930;-73
2024/02/23 15:10:40;;;;;;;1.13;0.50;;;;;;;;;;10578460;27;20408;-74
2024/02/23 15:15:42;;;;;;;2.13;0.70;;;;;;;;;;10571421;28;20498;-72
2024/02/23 15:20:46;;;;;;;0.30;0.25;;;;;;;;;;10568258;27;20290;-73
2024/02/23 15:25:50;;;;;;;1.83;0.30;;;;;;;;;;10578357;27;20553;-72
2024/02/23 15:31:05;;;;;;;1.63;0.60;;;;;;;;;;10568973;27;20378;-71
2024/02/23 15:36:09;;;;;;;1.52;0.60;;;;;;;;;;10571126;27;20040;-72
2024/02/23 15:41:13;;;;;;;2.00;0.47;;;;;;;;;;10574427;27;20475;-72
2024/02/23 15:46:16;;;;;;;1.90;0.80;;;;;;;;;;10570818;27;20055;-74
2024/02/23 15:51:18;;;;;;;1.77;0.80;;;;;;;;;;10570594;27;20191;-72
2024/02/23 15:56:43;;;;;;;0.70;0.57;;;;;;;;;;10560832;27;20066;-72
2024/02/23 16:01:52;;;;;;;0.77;0.50;;;;;;;;;;10565606;27;20043;-74
2024/02/23 16:06:55;;;;;;;1.95;0.60;;;;;;;;;;10572987;27;20078;-71
2024/02/23 16:11:59;;;;;;;1.83;0.63;;;;;;;;;;10555593;27;20089;-71
2024/02/23 16:17:02;;;;;;;;;;;;;;;;;;10572443;27;20075;-73
2024/02/23 16:22:05;;;;;;;0.55;0.32;;;;;;;;;;10570874;27;20021;-74
2024/02/23 16:27:10;;;;;;;0.60;0.47;;;;;;;;;;10568282;27;20162;-73
2024/02/23 16:32:13;;;;;;;0.45;0.32;;;;;;;;;;10568840;27;20043;-73
2024/02/23 16:37:16;;;;;;;0.67;0.60;;;;;;;;;;10570361;27;20118;-72
2024/02/23 16:42:21;;;;;;;1.38;0.80;;;;;;;;;;10571063;27;20297;-72
2024/02/23 16:47:23;;;;;;;0.10;0.10;;;;;;;;;;10571929;27;20043;-71
2024/02/23 16:52:26;;;;;;;1.25;0.75;;;;;;;;;;10568808;27;20051;-73
2024/02/23 16:57:30;;;;;;;2.25;1.10;;;;;;;;;;10557670;28;20469;-72
2024/02/23 17:02:33;;;;;;;;;;;;;;;;;;10571926;27;20040;-73
2024/02/23 17:07:37;;;;;;;2.45;0.60;;;;;;;;;;10543723;27;20313;-72
2024/02/23 17:12:45;;;;;;;1.80;0.60;;;;;;;;;;10571487;27;20043;-72
2024/02/23 17:17:48;;;;;;;0.50;0.47;;;;;;;;;;10558146;27;20028;-71
2024/02/23 17:22:51;;;;;;;0.40;0.40;;;;;;;;;;10562819;27;20061;-73
2024/02/23 17:27:56;;;;;;;2.08;0.80;;;;;;;;;;10559268;27;20130;-74
2024/02/23 17:32:59;;;;;;;1.48;0.77;;;;;;;;;;10568082;27;20074;-73
2024/02/23 17:38:02;;;;;;;1.27;0.70;;;;;;;;;;10569453;27;20476;-72
2024/02/23 17:43:07;;;;;;;0.85;0.75;;;;;;;;;;10564258;28;20039;-73
2024/02/23 17:48:10;;;;;;;2.20;0.77;;;;;;;;;;10569672;27;20055;-73
2024/02/23 17:53:13;;;;;;;1.35;0.57;;;;;;;;;;10567593;27;20040;-76
2024/02/23 17:58:17;;;;;;;1.27;0.80;;;;;;;;;;10562591;27;20039;-73
2024/02/23 18:03:22;;;;;;;2.08;1.42;;;;;;;;;;10569248;27;20054;-73
2024/02/23 18:08:25;;;;;;;1.02;0.43;;;;;;;;;;10566757;27;20036;-73
2024/02/23 18:13:29;;;;;;;1.02;1.00;;;;;;;;;;10567921;27;20047;-74
2024/02/23 18:18:32;;;;;;;;;;;;;;;;;;10563993;27;20088;-72
2024/02/23 18:23:35;;;;;;;1.23;0.43;;;;;;;;;;10563107;27;19972;-73
2024/02/23 18:28:41;;;;;;;0.67;0.67;;;;;;;;;;10563344;27;20051;-77
2024/02/23 18:33:44;;;;;;;2.28;1.20;;;;;;;;;;10565515;27;20047;-75
2024/02/23 18:38:47;;;;;;;1.55;0.90;;;;;;;;;;10569004;27;20039;-74
2024/02/23 18:43:52;;;;;;;1.33;0.82;;;;;;;;;;10579463;27;20044;-76
2024/02/23 18:48:55;;;;;;;2.40;1.05;;;;;;;;;;10561741;28;20040;-73
2024/02/23 18:53:58;;;;;;;2.13;0.95;;;;;;;;;;10551072;28;20051;-75
2024/02/23 18:59:04;;;;;;;1.90;0.85;;;;;;;;;;10576934;28;20055;-72
2024/02/23 19:04:07;;;;;;;3.83;0.90;;;;;;;;;;10554374;28;20462;-73
2024/02/23 19:09:10;;;;;;;2.22;1.20;;;;;;;;;;10551489;28;20229;-75
2024/02/23 19:14:14;;;;;;;1.70;1.20;;;;;;;;;;10557240;28;20108;-73
2024/02/23 19:19:17;;;;;;;1.85;1.50;;;;;;;;;;10570866;28;20036;-74
2024/02/23 19:24:20;;;;;;;0.82;0.52;;;;;;;;;;10565456;28;20044;-73
2024/02/23 19:29:25;;;;;;;1.20;0.60;;;;;;;;;;10559588;28;20105;-74
2024/02/23 19:34:27;;;;;;;;;;;;;;;;;;10560543;28;21221;-74
2024/02/23 19:39:30;;;;;;;1.33;0.85;;;;;;;;;;10539315;28;19923;-73
2024/02/23 19:44:35;;;;;;;1.83;0.85;;;;;;;;;;10568254;28;20112;-74
2024/02/23 19:49:38;;;;;;;1.50;0.98;;;;;;;;;;10571328;27;20031;-72
2024/02/23 19:54:42;;;;;;;1.75;0.90;;;;;;;;;;10562354;27;20047;-76
2024/02/23 19:59:46;;;;;;;2.70;1.05;;;;;;;;;;10571818;27;20031;-76
2024/02/23 20:04:51;;;;;;;2.40;1.30;;;;;;;;;;10564946;27;20404;-73
2024/02/23 20:09:55;;;;;;;1.15;0.73;;;;;;;;;;10563235;28;20130;-74
2024/02/23 20:15:03;;;;;;;2.17;0.98;;;;;;;;;;10566534;28;20062;-73
2024/02/23 20:20:07;;;;;;;1.48;0.90;;;;;;;;;;10570148;27;20101;-74
2024/02/23 20:25:10;;;;;;;1.63;0.90;;;;;;;;;;10574341;27;20063;-73
2024/02/23 20:30:15;;;;;;;0.57;0.57;;;;;;;;;;10569170;27;20066;-74
2024/02/23 20:35:18;;;;;;;2.75;0.93;;;;;;;;;;10564785;27;20043;-73
2024/02/23 20:40:21;;;;;;;1.42;1.08;;;;;;;;;;10571026;27;20036;-75
2024/02/23 20:45:25;;;;;;;1.48;1.10;;;;;;;;;;10563408;27;20556;-74
2024/02/23 20:50:28;;;;;;;3.28;1.50;;;;;;;;;;10567638;27;20559;-74
2024/02/23 20:55:31;;;;;;;1.60;1.10;;;;;;;;;;10541676;27;20054;-76
2024/02/23 21:00:36;;;;;;;1.52;0.68;;;;;;;;;;10566671;27;20171;-75
2024/02/23 21:05:39;;;;;;;2.13;0.85;;;;;;;;;;10569610;27;20044;-74
2024/02/23 21:10:43;;;;;;;2.70;1.60;;;;;;;;;;10563915;28;20047;-74
2024/02/23 21:15:47;;;;;;;1.90;0.85;;;;;;;;;;10542082;28;20114;-73
2024/02/23 21:20:50;;;;;;;;;;;;;;;;;;10563226;27;20546;-75
2024/02/23 21:25:53;;;;;;;1.33;0.63;;;;;;;;;;10569301;27;20659;-74
2024/02/23 21:31:03;;;;;;;2.17;1.17;;;;;;;;;;10566730;27;20497;-73
2024/02/23 21:36:06;;;;;;;0.63;0.43;;;;;;;;;;10567257;27;20036;-74
2024/02/23 21:41:09;;;;;;;2.25;1.23;;;;;;;;;;10569493;27;20097;-73
2024/02/23 21:46:13;;;;;;;;;;;;;;;;;;10568237;27;20127;-74
2024/02/23 21:51:17;;;;;;;0.57;0.30;;;;;;;;;;10557288;27;19928;-75
2024/02/23 21:56:20;;;;;;;;;;;;;;;;;;10567057;27;20056;-73
2024/02/23 22:01:22;;;;;;;1.58;1.08;;;;;;;;;;10559209;27;19930;-73
2024/02/23 22:06:28;;;;;;;1.60;1.15;;;;;;;;;;10563854;27;20051;-76
2024/02/23 22:11:31;;;;;;;0.55;0.45;;;;;;;;;;10572849;27;20064;-74
2024/02/23 22:16:35;;;;;;;0.90;0.70;;;;;;;;;;10563349;28;20039;-74
2024/02/23 22:21:39;;;;;;;1.42;0.80;;;;;;;;;;10557447;27;20067;-76
2024/02/23 22:26:54;;;;;;;1.67;0.73;;;;;;;;;;10562215;27;20054;-73
2024/02/23 22:31:58;;;;;;;2.58;1.33;;;;;;;;;;10561560;27;20088;-74
2024/02/23 22:37:03;;;;;;;2.88;0.63;;;;;;;;;;10572790;27;20096;-74
2024/02/23 22:42:10;;;;;;;0.40;0.40;;;;;;;;;;10572472;27;20034;-74
2024/02/23 22:47:14;;;;;;;2.63;1.15;;;;;;;;;;10577641;27;20570;-73
2024/02/23 22:52:19;;;;;;;2.63;0.98;;;;;;;;;;10577844;28;20024;-74
2024/02/23 22:57:21;;;;;;;2.58;1.30;;;;;;;;;;10578982;28;20051;-75
2024/02/23 23:02:26;;;;;;;3.58;1.25;;;;;;;;;;10579904;28;20039;-76
2024/02/23 23:07:31;;;;;;;1.38;0.70;;;;;;;;;;10577295;28;20067;-76
2024/02/23 23:12:34;;;;;;;2.47;1.25;;;;;;;;;;10583183;28;20063;-75
2024/02/23 23:17:37;;;;;;;1.13;0.73;;;;;;;;;;10576807;27;20032;-75
2024/02/23 23:22:46;;;;;;;2.83;1.08;;;;;;;;;;10587735;27;20098;-75
2024/02/23 23:27:49;;;;;;;2.53;1.02;;;;;;;;;;10585428;27;20507;-75
2024/02/23 23:32:52;;;;;;;1.23;0.55;;;;;;;;;;10575619;27;20124;-74
2024/02/23 23:37:57;;;;;;;0.50;0.50;;;;;;;;;;10556504;27;20048;-74
2024/02/23 23:43:00;;;;;;;;;;;;;;;;;;10574324;27;20040;-75
2024/02/23 23:48:06;;;;;;;2.22;1.15;;;;;;;;;;10572384;27;20191;-74
2024/02/23 23:53:10;;;;;;;3.92;0.73;;;;;;;;;;10575283;27;20043;-73
2024/02/23 23:58:15;;;;;;;1.42;0.90;;;;;;;;;;10572757;27;20040;-75
